sensor_id;sensor_type;location;lat;lon;timestamp;P1;durP1;ratioP1;P2;durP2;ratioP2
23449;SDS011;11897;45.438;12.128;2024-01-15T00:01:21;87.03;;;48.43;;
23449;SDS011;11897;45.438;12.128;2024-01-15T00:03:48;87.10;;;49.70;;
23449;SDS011;11897;45.438;12.128;2024-01-15T00:06:18;87.87;;;50.30;;
23449;SDS011;11897;45.438;12.128;2024-01-15T00:08:45;95.87;;;52.07;;
23449;SDS011;11897;45.438;12.128;2024-01-15T00:11:12;90.17;;;52.60;;
23449;SDS011;11897;45.438;12.128;2024-01-15T00:13:38;91.57;;;51.87;;
23449;SDS011;11897;45.438;12.128;2024-01-15T00:16:06;86.80;;;49.00;;
23449;SDS011;11897;45.438;12.128;2024-01-15T00:18:32;95.30;;;52.80;;
23449;SDS011;11897;45.438;12.128;2024-01-15T00:21:00;89.03;;;49.83;;
23449;SDS011;11897;45.438;12.128;2024-01-15T00:23:28;91.57;;;51.50;;
23449;SDS011;11897;45.438;12.128;2024-01-15T00:25:55;86.27;;;49.83;;
23449;SDS011;11897;45.438;12.128;2024-01-15T00:28:22;86.23;;;48.90;;
23449;SDS011;11897;45.438;12.128;2024-01-15T00:30:48;91.57;;;50.90;;
23449;SDS011;11897;45.438;12.128;2024-01-15T00:33:15;86.80;;;49.87;;
23449;SDS011;11897;45.438;12.128;2024-01-15T00:35:42;90.73;;;50.50;;
23449;SDS011;11897;45.438;12.128;2024-01-15T00:38:09;94.77;;;50.90;;
23449;SDS011;11897;45.438;12.128;2024-01-15T00:40:39;84.13;;;47.60;;
23449;SDS011;11897;45.438;12.128;2024-01-15T00:43:08;83.80;;;49.20;;
23449;SDS011;11897;45.438;12.128;2024-01-15T00:45:34;86.13;;;48.77;;
23449;SDS011;11897;45.438;12.128;2024-01-15T00:48:01;90.00;;;50.73;;
23449;SDS011;11897;45.438;12.128;2024-01-15T00:50:29;97.63;;;51.13;;
23449;SDS011;11897;45.438;12.128;2024-01-15T00:52:56;81.53;;;47.03;;
23449;SDS011;11897;45.438;12.128;2024-01-15T00:55:23;86.63;;;48.13;;
23449;SDS011;11897;45.438;12.128;2024-01-15T00:57:52;97.60;;;51.17;;
23449;SDS011;11897;45.438;12.128;2024-01-15T01:00:19;90.17;;;51.40;;
23449;SDS011;11897;45.438;12.128;2024-01-15T01:02:45;91.17;;;49.80;;
23449;SDS011;11897;45.438;12.128;2024-01-15T01:05:15;89.80;;;49.97;;
23449;SDS011;11897;45.438;12.128;2024-01-15T01:07:42;88.70;;;49.27;;
23449;SDS011;11897;45.438;12.128;2024-01-15T01:10:09;89.07;;;50.57;;
23449;SDS011;11897;45.438;12.128;2024-01-15T01:12:36;89.03;;;49.63;;
23449;SDS011;11897;45.438;12.128;2024-01-15T01:15:04;92.17;;;50.33;;
23449;SDS011;11897;45.438;12.128;2024-01-15T01:17:31;88.40;;;50.57;;
23449;SDS011;11897;45.438;12.128;2024-01-15T01:19:58;91.50;;;48.87;;
23449;SDS011;11897;45.438;12.128;2024-01-15T01:22:24;83.67;;;48.63;;
23449;SDS011;11897;45.438;12.128;2024-01-15T01:24:51;89.77;;;48.77;;
23449;SDS011;11897;45.438;12.128;2024-01-15T01:27:18;99.67;;;51.23;;
23449;SDS011;11897;45.438;12.128;2024-01-15T01:29:44;93.27;;;50.07;;
23449;SDS011;11897;45.438;12.128;2024-01-15T01:32:13;88.33;;;50.77;;
23449;SDS011;11897;45.438;12.128;2024-01-15T01:34:40;92.13;;;50.30;;
23449;SDS011;11897;45.438;12.128;2024-01-15T01:37:06;89.63;;;48.83;;
23449;SDS011;11897;45.438;12.128;2024-01-15T01:39:33;90.47;;;50.40;;
23449;SDS011;11897;45.438;12.128;2024-01-15T01:42:00;90.30;;;50.30;;
23449;SDS011;11897;45.438;12.128;2024-01-15T01:44:27;91.30;;;49.23;;
23449;SDS011;11897;45.438;12.128;2024-01-15T01:46:54;89.10;;;48.40;;
23449;SDS011;11897;45.438;12.128;2024-01-15T01:49:25;87.33;;;48.43;;
23449;SDS011;11897;45.438;12.128;2024-01-15T01:51:53;88.13;;;49.53;;
23449;SDS011;11897;45.438;12.128;2024-01-15T01:54:22;90.00;;;49.37;;
23449;SDS011;11897;45.438;12.128;2024-01-15T01:56:50;86.07;;;50.13;;
23449;SDS011;11897;45.438;12.128;2024-01-15T01:59:18;90.90;;;49.97;;
23449;SDS011;11897;45.438;12.128;2024-01-15T02:01:44;90.73;;;48.93;;
23449;SDS011;11897;45.438;12.128;2024-01-15T02:04:11;85.03;;;49.10;;
23449;SDS011;11897;45.438;12.128;2024-01-15T02:06:40;89.40;;;49.77;;
23449;SDS011;11897;45.438;12.128;2024-01-15T02:09:07;84.97;;;49.23;;
23449;SDS011;11897;45.438;12.128;2024-01-15T02:11:36;89.13;;;50.47;;
23449;SDS011;11897;45.438;12.128;2024-01-15T02:14:03;93.03;;;50.90;;
23449;SDS011;11897;45.438;12.128;2024-01-15T02:16:29;86.80;;;49.40;;
23449;SDS011;11897;45.438;12.128;2024-01-15T02:18:56;95.40;;;51.90;;
23449;SDS011;11897;45.438;12.128;2024-01-15T02:21:23;85.97;;;49.83;;
23449;SDS011;11897;45.438;12.128;2024-01-15T02:23:54;95.93;;;52.13;;
23449;SDS011;11897;45.438;12.128;2024-01-15T02:26:21;86.83;;;49.47;;
23449;SDS011;11897;45.438;12.128;2024-01-15T02:28:47;92.50;;;50.17;;
23449;SDS011;11897;45.438;12.128;2024-01-15T02:31:14;86.93;;;49.00;;
23449;SDS011;11897;45.438;12.128;2024-01-15T02:33:42;95.97;;;50.90;;
23449;SDS011;11897;45.438;12.128;2024-01-15T02:36:09;85.13;;;48.43;;
23449;SDS011;11897;45.438;12.128;2024-01-15T02:38:35;90.40;;;49.37;;
23449;SDS011;11897;45.438;12.128;2024-01-15T02:41:07;89.40;;;49.83;;
23449;SDS011;11897;45.438;12.128;2024-01-15T02:43:34;92.77;;;50.17;;
23449;SDS011;11897;45.438;12.128;2024-01-15T02:46:00;84.90;;;50.50;;
23449;SDS011;11897;45.438;12.128;2024-01-15T02:48:27;88.53;;;51.50;;
23449;SDS011;11897;45.438;12.128;2024-01-15T02:50:54;91.07;;;50.53;;
23449;SDS011;11897;45.438;12.128;2024-01-15T02:53:23;92.03;;;50.73;;
23449;SDS011;11897;45.438;12.128;2024-01-15T02:55:50;100.53;;;51.93;;
23449;SDS011;11897;45.438;12.128;2024-01-15T02:58:18;96.23;;;51.03;;
23449;SDS011;11897;45.438;12.128;2024-01-15T03:00:45;89.47;;;51.57;;
23449;SDS011;11897;45.438;12.128;2024-01-15T03:03:13;90.87;;;51.90;;
23449;SDS011;11897;45.438;12.128;2024-01-15T03:05:41;85.63;;;49.37;;
23449;SDS011;11897;45.438;12.128;2024-01-15T03:08:07;94.73;;;51.33;;
23449;SDS011;11897;45.438;12.128;2024-01-15T03:10:35;91.40;;;49.67;;
23449;SDS011;11897;45.438;12.128;2024-01-15T03:13:01;87.97;;;50.13;;
23449;SDS011;11897;45.438;12.128;2024-01-15T03:15:29;86.33;;;50.57;;
23449;SDS011;11897;45.438;12.128;2024-01-15T03:17:56;92.47;;;50.97;;
23449;SDS011;11897;45.438;12.128;2024-01-15T03:20:23;87.13;;;48.47;;
23449;SDS011;11897;45.438;12.128;2024-01-15T03:22:49;102.23;;;52.20;;
23449;SDS011;11897;45.438;12.128;2024-01-15T03:25:16;93.40;;;50.80;;
23449;SDS011;11897;45.438;12.128;2024-01-15T03:27:43;95.13;;;50.00;;
23449;SDS011;11897;45.438;12.128;2024-01-15T03:30:10;86.90;;;49.60;;
23449;SDS011;11897;45.438;12.128;2024-01-15T03:32:38;88.10;;;48.83;;
23449;SDS011;11897;45.438;12.128;2024-01-15T03:35:05;86.40;;;49.30;;
23449;SDS011;11897;45.438;12.128;2024-01-15T03:37:32;94.00;;;50.73;;
23449;SDS011;11897;45.438;12.128;2024-01-15T03:39:59;88.03;;;48.87;;
23449;SDS011;11897;45.438;12.128;2024-01-15T03:42:26;87.53;;;50.87;;
23449;SDS011;11897;45.438;12.128;2024-01-15T03:44:52;90.20;;;49.50;;
23449;SDS011;11897;45.438;12.128;2024-01-15T03:47:19;94.40;;;47.83;;
23449;SDS011;11897;45.438;12.128;2024-01-15T03:49:48;77.90;;;46.60;;
23449;SDS011;11897;45.438;12.128;2024-01-15T03:52:17;87.90;;;46.83;;
23449;SDS011;11897;45.438;12.128;2024-01-15T03:54:55;84.37;;;46.03;;
23449;SDS011;11897;45.438;12.128;2024-01-15T03:57:22;83.17;;;45.37;;
23449;SDS011;11897;45.438;12.128;2024-01-15T03:59:50;76.83;;;43.87;;
23449;SDS011;11897;45.438;12.128;2024-01-15T04:02:18;88.40;;;46.07;;
23449;SDS011;11897;45.438;12.128;2024-01-15T04:04:45;81.57;;;45.90;;
23449;SDS011;11897;45.438;12.128;2024-01-15T04:07:13;89.60;;;46.27;;
23449;SDS011;11897;45.438;12.128;2024-01-15T04:09:40;88.23;;;47.30;;
23449;SDS011;11897;45.438;12.128;2024-01-15T04:12:06;85.67;;;46.97;;
23449;SDS011;11897;45.438;12.128;2024-01-15T04:14:33;92.73;;;47.60;;
23449;SDS011;11897;45.438;12.128;2024-01-15T04:17:00;87.30;;;48.20;;
23449;SDS011;11897;45.438;12.128;2024-01-15T04:19:29;77.50;;;44.83;;
23449;SDS011;11897;45.438;12.128;2024-01-15T04:21:56;87.73;;;47.80;;
23449;SDS011;11897;45.438;12.128;2024-01-15T04:24:24;88.03;;;47.27;;
23449;SDS011;11897;45.438;12.128;2024-01-15T04:26:51;88.20;;;48.03;;
23449;SDS011;11897;45.438;12.128;2024-01-15T04:29:18;91.27;;;47.63;;
23449;SDS011;11897;45.438;12.128;2024-01-15T04:31:45;84.13;;;45.97;;
23449;SDS011;11897;45.438;12.128;2024-01-15T04:34:15;85.13;;;46.57;;
23449;SDS011;11897;45.438;12.128;2024-01-15T04:36:42;82.17;;;46.47;;
23449;SDS011;11897;45.438;12.128;2024-01-15T04:39:12;84.03;;;47.63;;
23449;SDS011;11897;45.438;12.128;2024-01-15T04:41:41;82.97;;;48.37;;
23449;SDS011;11897;45.438;12.128;2024-01-15T04:44:08;83.27;;;46.93;;
23449;SDS011;11897;45.438;12.128;2024-01-15T04:46:35;87.47;;;49.50;;
23449;SDS011;11897;45.438;12.128;2024-01-15T04:49:02;88.73;;;48.70;;
23449;SDS011;11897;45.438;12.128;2024-01-15T04:51:29;88.30;;;48.27;;
23449;SDS011;11897;45.438;12.128;2024-01-15T04:53:55;90.30;;;47.53;;
23449;SDS011;11897;45.438;12.128;2024-01-15T04:56:23;88.03;;;46.90;;
23449;SDS011;11897;45.438;12.128;2024-01-15T04:58:51;89.67;;;47.93;;
23449;SDS011;11897;45.438;12.128;2024-01-15T05:01:19;86.67;;;46.83;;
23449;SDS011;11897;45.438;12.128;2024-01-15T05:03:45;82.13;;;46.73;;
23449;SDS011;11897;45.438;12.128;2024-01-15T05:06:12;90.97;;;48.07;;
23449;SDS011;11897;45.438;12.128;2024-01-15T05:08:39;82.00;;;46.73;;
23449;SDS011;11897;45.438;12.128;2024-01-15T05:11:05;87.23;;;47.93;;
23449;SDS011;11897;45.438;12.128;2024-01-15T05:13:32;83.13;;;46.57;;
23449;SDS011;11897;45.438;12.128;2024-01-15T05:16:02;84.03;;;47.87;;
23449;SDS011;11897;45.438;12.128;2024-01-15T05:18:29;81.47;;;47.03;;
23449;SDS011;11897;45.438;12.128;2024-01-15T05:20:56;82.97;;;46.00;;
23449;SDS011;11897;45.438;12.128;2024-01-15T05:23:22;82.57;;;45.37;;
23449;SDS011;11897;45.438;12.128;2024-01-15T05:25:49;83.07;;;47.17;;
23449;SDS011;11897;45.438;12.128;2024-01-15T05:28:16;85.67;;;48.43;;
23449;SDS011;11897;45.438;12.128;2024-01-15T05:30:43;86.57;;;47.63;;
23449;SDS011;11897;45.438;12.128;2024-01-15T05:33:12;94.60;;;48.97;;
23449;SDS011;11897;45.438;12.128;2024-01-15T05:35:38;87.73;;;47.03;;
23449;SDS011;11897;45.438;12.128;2024-01-15T05:38:05;86.63;;;47.07;;
23449;SDS011;11897;45.438;12.128;2024-01-15T05:40:32;78.83;;;44.20;;
23449;SDS011;11897;45.438;12.128;2024-01-15T05:42:58;85.40;;;46.03;;
23449;SDS011;11897;45.438;12.128;2024-01-15T05:45:25;79.33;;;44.27;;
23449;SDS011;11897;45.438;12.128;2024-01-15T05:47:52;81.70;;;45.63;;
23449;SDS011;11897;45.438;12.128;2024-01-15T05:50:21;84.83;;;45.27;;
23449;SDS011;11897;45.438;12.128;2024-01-15T05:52:47;86.17;;;46.83;;
23449;SDS011;11897;45.438;12.128;2024-01-15T05:55:14;88.47;;;47.00;;
23449;SDS011;11897;45.438;12.128;2024-01-15T05:57:43;77.47;;;44.40;;
23449;SDS011;11897;45.438;12.128;2024-01-15T06:00:10;85.13;;;46.93;;
23449;SDS011;11897;45.438;12.128;2024-01-15T06:02:37;78.00;;;45.90;;
23449;SDS011;11897;45.438;12.128;2024-01-15T06:05:04;81.90;;;46.17;;
23449;SDS011;11897;45.438;12.128;2024-01-15T06:07:34;79.97;;;46.13;;
23449;SDS011;11897;45.438;12.128;2024-01-15T06:10:08;82.67;;;46.27;;
23449;SDS011;11897;45.438;12.128;2024-01-15T06:12:34;83.90;;;46.60;;
23449;SDS011;11897;45.438;12.128;2024-01-15T06:15:01;83.20;;;46.60;;
23449;SDS011;11897;45.438;12.128;2024-01-15T06:17:28;81.47;;;46.13;;
23449;SDS011;11897;45.438;12.128;2024-01-15T06:19:55;89.17;;;44.87;;
23449;SDS011;11897;45.438;12.128;2024-01-15T06:22:22;77.47;;;44.10;;
23449;SDS011;11897;45.438;12.128;2024-01-15T06:24:50;84.70;;;45.97;;
23449;SDS011;11897;45.438;12.128;2024-01-15T06:27:16;77.33;;;43.83;;
23449;SDS011;11897;45.438;12.128;2024-01-15T06:29:44;78.30;;;42.73;;
23449;SDS011;11897;45.438;12.128;2024-01-15T06:32:11;83.37;;;46.63;;
23449;SDS011;11897;45.438;12.128;2024-01-15T06:34:38;89.70;;;45.70;;
23449;SDS011;11897;45.438;12.128;2024-01-15T06:37:05;79.70;;;44.67;;
23449;SDS011;11897;45.438;12.128;2024-01-15T06:39:32;74.30;;;43.23;;
23449;SDS011;11897;45.438;12.128;2024-01-15T06:42:00;85.50;;;46.37;;
23449;SDS011;11897;45.438;12.128;2024-01-15T06:44:27;72.77;;;42.07;;
23449;SDS011;11897;45.438;12.128;2024-01-15T06:46:54;77.83;;;43.17;;
23449;SDS011;11897;45.438;12.128;2024-01-15T06:49:22;74.40;;;42.63;;
23449;SDS011;11897;45.438;12.128;2024-01-15T06:51:49;80.87;;;42.37;;
23449;SDS011;11897;45.438;12.128;2024-01-15T06:54:16;77.13;;;42.13;;
23449;SDS011;11897;45.438;12.128;2024-01-15T06:56:42;78.43;;;43.70;;
23449;SDS011;11897;45.438;12.128;2024-01-15T06:59:10;69.87;;;42.27;;
23449;SDS011;11897;45.438;12.128;2024-01-15T07:01:37;68.70;;;41.07;;
23449;SDS011;11897;45.438;12.128;2024-01-15T07:04:04;74.50;;;42.97;;
23449;SDS011;11897;45.438;12.128;2024-01-15T07:06:30;76.93;;;41.33;;
23449;SDS011;11897;45.438;12.128;2024-01-15T07:08:57;75.93;;;43.80;;
23449;SDS011;11897;45.438;12.128;2024-01-15T07:11:24;71.00;;;41.73;;
23449;SDS011;11897;45.438;12.128;2024-01-15T07:13:50;73.97;;;42.70;;
23449;SDS011;11897;45.438;12.128;2024-01-15T07:16:18;77.60;;;44.00;;
23449;SDS011;11897;45.438;12.128;2024-01-15T07:18:45;71.27;;;41.90;;
23449;SDS011;11897;45.438;12.128;2024-01-15T07:21:12;73.77;;;40.37;;
23449;SDS011;11897;45.438;12.128;2024-01-15T07:23:38;76.53;;;40.67;;
23449;SDS011;11897;45.438;12.128;2024-01-15T07:26:05;69.43;;;41.30;;
23449;SDS011;11897;45.438;12.128;2024-01-15T07:28:32;70.73;;;37.27;;
23449;SDS011;11897;45.438;12.128;2024-01-15T07:30:59;61.53;;;36.53;;
23449;SDS011;11897;45.438;12.128;2024-01-15T07:33:29;65.63;;;37.40;;
23449;SDS011;11897;45.438;12.128;2024-01-15T07:35:57;64.77;;;38.00;;
23449;SDS011;11897;45.438;12.128;2024-01-15T07:38:24;64.70;;;37.07;;
23449;SDS011;11897;45.438;12.128;2024-01-15T07:40:51;63.37;;;37.00;;
23449;SDS011;11897;45.438;12.128;2024-01-15T07:43:20;62.93;;;35.13;;
23449;SDS011;11897;45.438;12.128;2024-01-15T07:45:48;59.90;;;34.10;;
23449;SDS011;11897;45.438;12.128;2024-01-15T07:48:15;122.57;;;62.23;;
23449;SDS011;11897;45.438;12.128;2024-01-15T07:50:45;67.93;;;39.43;;
23449;SDS011;11897;45.438;12.128;2024-01-15T07:53:12;64.37;;;35.00;;
23449;SDS011;11897;45.438;12.128;2024-01-15T07:55:42;61.27;;;34.53;;
23449;SDS011;11897;45.438;12.128;2024-01-15T07:58:11;55.13;;;33.93;;
23449;SDS011;11897;45.438;12.128;2024-01-15T08:00:38;61.20;;;34.30;;
23449;SDS011;11897;45.438;12.128;2024-01-15T08:03:06;61.23;;;32.60;;
23449;SDS011;11897;45.438;12.128;2024-01-15T08:05:34;55.40;;;32.13;;
23449;SDS011;11897;45.438;12.128;2024-01-15T08:08:02;58.17;;;33.23;;
23449;SDS011;11897;45.438;12.128;2024-01-15T08:10:29;54.73;;;32.60;;
23449;SDS011;11897;45.438;12.128;2024-01-15T08:12:57;52.13;;;32.43;;
23449;SDS011;11897;45.438;12.128;2024-01-15T08:15:25;60.40;;;32.13;;
23449;SDS011;11897;45.438;12.128;2024-01-15T08:18:04;54.90;;;33.27;;
23449;SDS011;11897;45.438;12.128;2024-01-15T08:20:33;56.40;;;33.67;;
23449;SDS011;11897;45.438;12.128;2024-01-15T08:23:03;50.87;;;32.47;;
23449;SDS011;11897;45.438;12.128;2024-01-15T08:25:30;54.90;;;32.47;;
23449;SDS011;11897;45.438;12.128;2024-01-15T08:27:56;60.90;;;34.87;;
23449;SDS011;11897;45.438;12.128;2024-01-15T08:30:24;56.07;;;33.07;;
23449;SDS011;11897;45.438;12.128;2024-01-15T08:32:52;56.93;;;32.77;;
23449;SDS011;11897;45.438;12.128;2024-01-15T08:35:19;56.90;;;32.00;;
23449;SDS011;11897;45.438;12.128;2024-01-15T08:37:48;58.77;;;33.90;;
23449;SDS011;11897;45.438;12.128;2024-01-15T08:40:16;64.30;;;37.40;;
23449;SDS011;11897;45.438;12.128;2024-01-15T08:42:43;57.37;;;33.53;;
23449;SDS011;11897;45.438;12.128;2024-01-15T08:45:11;56.10;;;32.30;;
23449;SDS011;11897;45.438;12.128;2024-01-15T08:47:38;50.07;;;30.03;;
23449;SDS011;11897;45.438;12.128;2024-01-15T08:50:07;53.73;;;31.87;;
23449;SDS011;11897;45.438;12.128;2024-01-15T08:52:37;54.93;;;31.40;;
23449;SDS011;11897;45.438;12.128;2024-01-15T08:55:04;51.50;;;30.73;;
23449;SDS011;11897;45.438;12.128;2024-01-15T08:57:33;50.83;;;30.50;;
23449;SDS011;11897;45.438;12.128;2024-01-15T09:00:00;57.50;;;30.43;;
23449;SDS011;11897;45.438;12.128;2024-01-15T09:02:34;54.87;;;31.20;;
23449;SDS011;11897;45.438;12.128;2024-01-15T09:05:01;55.60;;;30.87;;
23449;SDS011;11897;45.438;12.128;2024-01-15T09:07:30;53.27;;;30.40;;
23449;SDS011;11897;45.438;12.128;2024-01-15T09:09:57;52.33;;;31.80;;
23449;SDS011;11897;45.438;12.128;2024-01-15T09:12:25;58.17;;;33.03;;
23449;SDS011;11897;45.438;12.128;2024-01-15T09:14:53;57.73;;;31.60;;
23449;SDS011;11897;45.438;12.128;2024-01-15T09:17:20;57.30;;;31.90;;
23449;SDS011;11897;45.438;12.128;2024-01-15T09:19:47;52.37;;;30.20;;
23449;SDS011;11897;45.438;12.128;2024-01-15T09:22:14;55.43;;;32.63;;
23449;SDS011;11897;45.438;12.128;2024-01-15T09:24:43;61.60;;;32.47;;
23449;SDS011;11897;45.438;12.128;2024-01-15T09:27:13;56.20;;;31.17;;
23449;SDS011;11897;45.438;12.128;2024-01-15T09:29:41;58.70;;;32.87;;
23449;SDS011;11897;45.438;12.128;2024-01-15T09:32:17;62.03;;;33.67;;
23449;SDS011;11897;45.438;12.128;2024-01-15T09:34:46;54.37;;;31.57;;
23449;SDS011;11897;45.438;12.128;2024-01-15T09:37:13;57.57;;;32.87;;
23449;SDS011;11897;45.438;12.128;2024-01-15T09:39:41;60.67;;;33.27;;
23449;SDS011;11897;45.438;12.128;2024-01-15T09:42:08;52.97;;;33.43;;
23449;SDS011;11897;45.438;12.128;2024-01-15T09:44:36;82.27;;;45.37;;
23449;SDS011;11897;45.438;12.128;2024-01-15T09:47:03;84.67;;;46.57;;
23449;SDS011;11897;45.438;12.128;2024-01-15T09:49:35;65.37;;;35.53;;
23449;SDS011;11897;45.438;12.128;2024-01-15T09:52:04;60.40;;;34.03;;
23449;SDS011;11897;45.438;12.128;2024-01-15T09:54:31;57.70;;;34.37;;
23449;SDS011;11897;45.438;12.128;2024-01-15T09:56:58;62.97;;;34.90;;
23449;SDS011;11897;45.438;12.128;2024-01-15T09:59:25;54.20;;;32.13;;
23449;SDS011;11897;45.438;12.128;2024-01-15T10:01:52;60.90;;;33.93;;
23449;SDS011;11897;45.438;12.128;2024-01-15T10:04:19;64.27;;;35.30;;
23449;SDS011;11897;45.438;12.128;2024-01-15T10:06:48;60.47;;;33.97;;
23449;SDS011;11897;45.438;12.128;2024-01-15T10:09:17;58.30;;;34.80;;
23449;SDS011;11897;45.438;12.128;2024-01-15T10:11:44;56.53;;;32.93;;
23449;SDS011;11897;45.438;12.128;2024-01-15T10:14:12;57.67;;;34.50;;
23449;SDS011;11897;45.438;12.128;2024-01-15T10:16:39;55.77;;;32.27;;
23449;SDS011;11897;45.438;12.128;2024-01-15T10:19:05;58.90;;;32.53;;
23449;SDS011;11897;45.438;12.128;2024-01-15T10:21:32;54.87;;;33.53;;
23449;SDS011;11897;45.438;12.128;2024-01-15T10:24:02;58.70;;;32.17;;
23449;SDS011;11897;45.438;12.128;2024-01-15T10:26:29;57.57;;;33.10;;
23449;SDS011;11897;45.438;12.128;2024-01-15T10:28:59;60.33;;;33.23;;
23449;SDS011;11897;45.438;12.128;2024-01-15T10:31:28;59.60;;;33.00;;
23449;SDS011;11897;45.438;12.128;2024-01-15T10:34:00;61.73;;;33.90;;
23449;SDS011;11897;45.438;12.128;2024-01-15T10:36:35;56.70;;;33.17;;
23449;SDS011;11897;45.438;12.128;2024-01-15T10:39:03;58.00;;;33.57;;
23449;SDS011;11897;45.438;12.128;2024-01-15T10:41:30;58.60;;;34.10;;
23449;SDS011;11897;45.438;12.128;2024-01-15T10:44:00;60.07;;;34.33;;
23449;SDS011;11897;45.438;12.128;2024-01-15T10:46:26;61.37;;;35.40;;
23449;SDS011;11897;45.438;12.128;2024-01-15T10:48:54;61.20;;;35.27;;
23449;SDS011;11897;45.438;12.128;2024-01-15T10:51:21;57.90;;;33.77;;
23449;SDS011;11897;45.438;12.128;2024-01-15T10:53:48;78.83;;;42.83;;
23449;SDS011;11897;45.438;12.128;2024-01-15T10:56:18;60.20;;;35.20;;
23449;SDS011;11897;45.438;12.128;2024-01-15T10:58:45;66.57;;;35.63;;
23449;SDS011;11897;45.438;12.128;2024-01-15T11:01:12;57.50;;;32.77;;
23449;SDS011;11897;45.438;12.128;2024-01-15T11:03:39;59.40;;;33.90;;
23449;SDS011;11897;45.438;12.128;2024-01-15T11:06:15;59.47;;;33.27;;
23449;SDS011;11897;45.438;12.128;2024-01-15T11:08:42;54.83;;;34.00;;
23449;SDS011;11897;45.438;12.128;2024-01-15T11:11:09;56.07;;;32.40;;
23449;SDS011;11897;45.438;12.128;2024-01-15T11:13:46;56.27;;;32.53;;
23449;SDS011;11897;45.438;12.128;2024-01-15T11:16:15;61.33;;;33.80;;
23449;SDS011;11897;45.438;12.128;2024-01-15T11:18:43;54.17;;;33.43;;
23449;SDS011;11897;45.438;12.128;2024-01-15T11:21:20;53.10;;;31.53;;
23449;SDS011;11897;45.438;12.128;2024-01-15T11:23:47;59.10;;;31.60;;
23449;SDS011;11897;45.438;12.128;2024-01-15T11:26:27;55.00;;;30.70;;
23449;SDS011;11897;45.438;12.128;2024-01-15T11:28:56;55.73;;;32.17;;
23449;SDS011;11897;45.438;12.128;2024-01-15T11:31:26;54.60;;;31.87;;
23449;SDS011;11897;45.438;12.128;2024-01-15T11:33:52;57.47;;;31.03;;
23449;SDS011;11897;45.438;12.128;2024-01-15T11:36:20;55.27;;;31.27;;
23449;SDS011;11897;45.438;12.128;2024-01-15T11:38:47;57.40;;;32.43;;
23449;SDS011;11897;45.438;12.128;2024-01-15T11:41:14;54.57;;;32.00;;
23449;SDS011;11897;45.438;12.128;2024-01-15T11:43:41;54.33;;;32.23;;
23449;SDS011;11897;45.438;12.128;2024-01-15T11:46:11;55.73;;;32.80;;
23449;SDS011;11897;45.438;12.128;2024-01-15T11:48:43;58.80;;;33.07;;
23449;SDS011;11897;45.438;12.128;2024-01-15T11:51:12;55.57;;;33.47;;
23449;SDS011;11897;45.438;12.128;2024-01-15T11:53:40;61.43;;;33.57;;
23449;SDS011;11897;45.438;12.128;2024-01-15T11:56:11;56.77;;;32.83;;
23449;SDS011;11897;45.438;12.128;2024-01-15T11:58:41;57.43;;;32.50;;
23449;SDS011;11897;45.438;12.128;2024-01-15T12:01:08;57.57;;;32.83;;
23449;SDS011;11897;45.438;12.128;2024-01-15T12:03:37;53.77;;;33.47;;
23449;SDS011;11897;45.438;12.128;2024-01-15T12:06:05;55.70;;;33.37;;
23449;SDS011;11897;45.438;12.128;2024-01-15T12:08:33;59.10;;;33.40;;
23449;SDS011;11897;45.438;12.128;2024-01-15T12:11:00;50.70;;;31.13;;
23449;SDS011;11897;45.438;12.128;2024-01-15T12:13:29;48.30;;;30.50;;
23449;SDS011;11897;45.438;12.128;2024-01-15T12:15:57;51.60;;;31.30;;
23449;SDS011;11897;45.438;12.128;2024-01-15T12:18:24;51.37;;;31.03;;
23449;SDS011;11897;45.438;12.128;2024-01-15T12:20:54;54.50;;;32.77;;
23449;SDS011;11897;45.438;12.128;2024-01-15T12:23:21;55.37;;;31.27;;
23449;SDS011;11897;45.438;12.128;2024-01-15T12:25:47;54.60;;;31.13;;
23449;SDS011;11897;45.438;12.128;2024-01-15T12:28:15;55.73;;;32.13;;
23449;SDS011;11897;45.438;12.128;2024-01-15T12:30:42;57.70;;;33.30;;
23449;SDS011;11897;45.438;12.128;2024-01-15T12:33:10;53.63;;;32.10;;
23449;SDS011;11897;45.438;12.128;2024-01-15T12:35:38;56.17;;;32.60;;
23449;SDS011;11897;45.438;12.128;2024-01-15T12:38:07;57.13;;;32.57;;
23449;SDS011;11897;45.438;12.128;2024-01-15T12:40:35;53.47;;;30.20;;
23449;SDS011;11897;45.438;12.128;2024-01-15T12:43:02;52.50;;;29.90;;
23449;SDS011;11897;45.438;12.128;2024-01-15T12:45:29;52.60;;;30.10;;
23449;SDS011;11897;45.438;12.128;2024-01-15T12:48:00;51.83;;;29.40;;
23449;SDS011;11897;45.438;12.128;2024-01-15T12:50:28;50.43;;;29.70;;
23449;SDS011;11897;45.438;12.128;2024-01-15T12:52:55;55.77;;;28.93;;
23449;SDS011;11897;45.438;12.128;2024-01-15T12:55:26;54.17;;;30.27;;
23449;SDS011;11897;45.438;12.128;2024-01-15T12:57:52;49.73;;;30.47;;
23449;SDS011;11897;45.438;12.128;2024-01-15T13:00:20;48.87;;;29.03;;
23449;SDS011;11897;45.438;12.128;2024-01-15T13:02:46;49.40;;;28.67;;
23449;SDS011;11897;45.438;12.128;2024-01-15T13:05:14;48.40;;;28.77;;
23449;SDS011;11897;45.438;12.128;2024-01-15T13:07:43;53.73;;;30.23;;
23449;SDS011;11897;45.438;12.128;2024-01-15T13:10:11;53.57;;;29.67;;
23449;SDS011;11897;45.438;12.128;2024-01-15T13:12:41;56.17;;;30.47;;
23449;SDS011;11897;45.438;12.128;2024-01-15T13:15:08;50.93;;;31.33;;
23449;SDS011;11897;45.438;12.128;2024-01-15T13:17:37;49.93;;;30.37;;
23449;SDS011;11897;45.438;12.128;2024-01-15T13:20:05;54.37;;;29.50;;
23449;SDS011;11897;45.438;12.128;2024-01-15T13:22:32;50.00;;;28.87;;
23449;SDS011;11897;45.438;12.128;2024-01-15T13:24:58;48.40;;;29.97;;
23449;SDS011;11897;45.438;12.128;2024-01-15T13:27:25;51.63;;;29.53;;
23449;SDS011;11897;45.438;12.128;2024-01-15T13:29:53;50.40;;;30.87;;
23449;SDS011;11897;45.438;12.128;2024-01-15T13:32:22;50.37;;;29.83;;
23449;SDS011;11897;45.438;12.128;2024-01-15T13:34:51;60.13;;;33.67;;
23449;SDS011;11897;45.438;12.128;2024-01-15T13:37:18;53.87;;;32.13;;
23449;SDS011;11897;45.438;12.128;2024-01-15T13:39:44;53.63;;;32.87;;
23449;SDS011;11897;45.438;12.128;2024-01-15T13:42:11;53.20;;;31.57;;
23449;SDS011;11897;45.438;12.128;2024-01-15T13:44:38;61.83;;;32.10;;
23449;SDS011;11897;45.438;12.128;2024-01-15T13:47:06;53.27;;;31.50;;
23449;SDS011;11897;45.438;12.128;2024-01-15T13:49:34;58.83;;;34.67;;
23449;SDS011;11897;45.438;12.128;2024-01-15T13:52:02;57.33;;;32.50;;
23449;SDS011;11897;45.438;12.128;2024-01-15T13:54:30;60.07;;;34.30;;
23449;SDS011;11897;45.438;12.128;2024-01-15T13:56:59;53.80;;;31.63;;
23449;SDS011;11897;45.438;12.128;2024-01-15T13:59:26;51.43;;;31.20;;
23449;SDS011;11897;45.438;12.128;2024-01-15T14:01:56;55.73;;;32.50;;
23449;SDS011;11897;45.438;12.128;2024-01-15T14:04:24;61.23;;;33.70;;
23449;SDS011;11897;45.438;12.128;2024-01-15T14:06:52;59.33;;;33.53;;
23449;SDS011;11897;45.438;12.128;2024-01-15T14:09:19;57.03;;;31.97;;
23449;SDS011;11897;45.438;12.128;2024-01-15T14:11:47;58.67;;;33.30;;